Time;durP1;ratioP1;P1;durP2;ratioP2;P2;SDS_P1;SDS_P2;PMS_P1;PMS_P2;Temp;Humidity;BMP_temperature;BMP_pressure;BME280_temperature;BME280_humidity;BME280_pressure;Samples;Min_cycle;Max_cycle;Signal;HPM_P1;HPM_P2
2021/12/01 00:02:10;;;;;;;34.97;13.98;;;;;;;;;;5008294;28;20459;-81
2021/12/01 00:04:36;;;;;;;36.58;12.73;;;;;;;;;;5006706;28;20053;-81
2021/12/01 00:07:03;;;;;;;36.08;13.40;;;;;;;;;;5006989;28;20046;-80
2021/12/01 00:09:29;;;;;;;39.45;13.70;;;;;;;;;;5006778;28;20121;-80
2021/12/01 00:11:55;;;;;;;38.78;11.73;;;;;;;;;;4990577;28;20501;-81
2021/12/01 00:14:21;;;;;;;40.35;14.27;;;;;;;;;;5005554;28;20056;-81
2021/12/01 00:16:47;;;;;;;40.25;13.00;;;;;;;;;;5007151;28;20114;-81
2021/12/01 00:19:13;;;;;;;37.53;12.90;;;;;;;;;;4988754;28;20046;-80
2021/12/01 00:21:39;;;;;;;32.80;12.73;;;;;;;;;;5004407;28;20516;-80
2021/12/01 00:24:05;;;;;;;42.83;12.65;;;;;;;;;;5005771;28;20093;-80
2021/12/01 00:26:31;;;;;;;39.03;12.13;;;;;;;;;;5005238;28;20053;-82
2021/12/01 00:28:58;;;;;;;38.05;12.18;;;;;;;;;;5006425;28;20437;-79
2021/12/01 00:31:24;;;;;;;42.67;13.35;;;;;;;;;;5004457;28;20049;-79
2021/12/01 00:33:50;;;;;;;38.75;12.98;;;;;;;;;;5006329;28;20026;-80
2021/12/01 00:36:17;;;;;;;45.55;14.98;;;;;;;;;;5000377;28;20524;-80
2021/12/01 00:38:43;;;;;;;38.85;13.10;;;;;;;;;;5004681;28;20066;-80
2021/12/01 00:41:10;;;;;;;47.00;14.65;;;;;;;;;;5004569;28;20088;-80
2021/12/01 00:43:39;;;;;;;40.97;15.40;;;;;;;;;;5004600;28;20461;-80
2021/12/01 00:46:13;;;;;;;51.45;15.68;;;;;;;;;;5005642;28;20076;-80
2021/12/01 00:48:39;;;;;;;42.65;15.38;;;;;;;;;;4987775;28;20038;-80
2021/12/01 00:51:05;;;;;;;45.63;16.77;;;;;;;;;;5004557;28;20109;-80
2021/12/01 00:53:31;;;;;;;45.88;16.70;;;;;;;;;;5005295;28;20041;-80
2021/12/01 00:55:58;;;;;;;44.83;17.67;;;;;;;;;;5006279;28;20497;-80
2021/12/01 00:58:24;;;;;;;42.53;16.38;;;;;;;;;;5002614;28;20046;-80
2021/12/01 01:00:50;;;;;;;54.72;23.40;;;;;;;;;;5004638;28;20056;-80
2021/12/01 01:03:16;;;;;;;53.85;21.55;;;;;;;;;;5007437;28;20076;-80
2021/12/01 01:05:43;;;;;;;65.18;26.15;;;;;;;;;;5004057;28;20478;-79
2021/12/01 01:08:09;;;;;;;49.58;25.20;;;;;;;;;;5005218;28;20038;-79
2021/12/01 01:18:38;;;;;;;54.95;25.65;;;;;;;;;;5003361;28;20405;-80
2021/12/01 01:21:05;;;;;;;59.17;29.35;;;;;;;;;;5004606;28;20045;-79
2021/12/01 01:23:31;;;;;;;66.38;32.97;;;;;;;;;;5004431;28;20346;-79
2021/12/01 01:25:58;;;;;;;65.65;33.47;;;;;;;;;;5004399;28;20044;-79
2021/12/01 01:28:24;;;;;;;63.13;34.38;;;;;;;;;;5003562;28;20092;-79
2021/12/01 01:30:52;;;;;;;60.45;29.70;;;;;;;;;;5005277;28;20038;-80
2021/12/01 01:33:18;;;;;;;64.30;32.15;;;;;;;;;;5014624;28;20063;-79
2021/12/01 01:35:44;;;;;;;61.60;32.00;;;;;;;;;;5013142;28;20147;-79
2021/12/01 01:38:10;;;;;;;54.83;27.95;;;;;;;;;;5006101;28;20157;-80
2021/12/01 01:40:37;;;;;;;57.30;33.92;;;;;;;;;;5006306;28;20061;-79
2021/12/01 01:43:04;;;;;;;55.20;30.45;;;;;;;;;;5015551;28;20399;-79
2021/12/01 01:45:30;;;;;;;54.70;30.65;;;;;;;;;;5011393;28;20045;-79
2021/12/01 01:48:04;;;;;;;39.72;24.45;;;;;;;;;;5013878;28;20030;-79
2021/12/01 01:50:37;;;;;;;30.45;20.50;;;;;;;;;;5001106;28;20057;-80
2021/12/01 01:53:04;;;;;;;37.42;25.45;;;;;;;;;;5003518;28;20049;-81
2021/12/01 01:55:30;;;;;;;40.20;23.95;;;;;;;;;;5006451;28;20092;-79
2021/12/01 01:57:56;;;;;;;35.78;22.90;;;;;;;;;;5002371;28;20064;-79
2021/12/01 02:00:22;;;;;;;46.47;25.35;;;;;;;;;;5007136;28;20038;-79
2021/12/01 02:02:48;;;;;;;46.45;25.35;;;;;;;;;;5008273;28;21104;-80
2021/12/01 02:05:15;;;;;;;34.92;21.75;;;;;;;;;;5007181;28;20414;-79
2021/12/01 02:07:43;;;;;;;28.92;17.15;;;;;;;;;;5008542;28;20038;-79
2021/12/01 02:10:09;;;;;;;32.55;19.40;;;;;;;;;;5008808;28;20049;-79
2021/12/01 02:12:35;;;;;;;26.88;16.02;;;;;;;;;;5007598;28;20058;-79
2021/12/01 02:15:01;;;;;;;26.85;16.38;;;;;;;;;;4990206;28;20042;-79
2021/12/01 02:17:27;;;;;;;35.17;17.55;;;;;;;;;;5004786;28;20100;-79
2021/12/01 02:19:55;;;;;;;32.15;16.48;;;;;;;;;;5008097;28;20049;-79
2021/12/01 02:22:21;;;;;;;24.42;15.32;;;;;;;;;;5007347;28;20034;-79
2021/12/01 02:24:47;;;;;;;22.70;11.75;;;;;;;;;;5007139;28;20053;-79
2021/12/01 02:27:14;;;;;;;22.50;13.50;;;;;;;;;;4990068;28;20030;-80
2021/12/01 02:29:40;;;;;;;29.52;12.95;;;;;;;;;;5008978;28;20180;-78
2021/12/01 02:32:06;;;;;;;20.30;11.43;;;;;;;;;;5007237;28;20136;-79
2021/12/01 02:34:34;;;;;;;16.88;9.82;;;;;;;;;;5005480;28;20048;-79
2021/12/01 02:37:01;;;;;;;18.45;8.80;;;;;;;;;;5008126;28;20057;-79
2021/12/01 02:39:28;;;;;;;14.55;7.45;;;;;;;;;;5006576;28;20536;-79
2021/12/01 02:41:55;;;;;;;16.50;6.60;;;;;;;;;;5007157;28;20493;-78
2021/12/01 02:44:21;;;;;;;13.40;5.95;;;;;;;;;;4988036;28;20624;-79
2021/12/01 02:46:47;;;;;;;18.92;7.03;;;;;;;;;;5006777;28;20041;-78
2021/12/01 02:49:14;;;;;;;7.13;4.35;;;;;;;;;;4989674;28;20046;-79
2021/12/01 02:51:40;;;;;;;14.50;4.50;;;;;;;;;;5007052;28;20192;-78
2021/12/01 02:54:07;;;;;;;9.88;3.85;;;;;;;;;;4990481;28;20375;-79
2021/12/01 02:56:34;;;;;;;9.57;3.55;;;;;;;;;;5005468;28;20116;-79
2021/12/01 02:59:01;;;;;;;10.07;3.70;;;;;;;;;;5005708;28;20544;-78
2021/12/01 03:01:28;;;;;;;5.78;2.83;;;;;;;;;;5006961;28;20120;-79
2021/12/01 03:03:54;;;;;;;8.25;3.30;;;;;;;;;;4974911;28;20026;-79
2021/12/01 03:06:22;;;;;;;6.55;3.03;;;;;;;;;;5007859;28;20064;-80
2021/12/01 03:08:48;;;;;;;8.27;2.55;;;;;;;;;;5006064;28;20045;-79
2021/12/01 03:11:15;;;;;;;6.35;3.15;;;;;;;;;;5006456;28;20394;-80
2021/12/01 03:13:42;;;;;;;8.88;2.72;;;;;;;;;;5006979;28;20073;-80
2021/12/01 03:16:08;;;;;;;7.30;2.95;;;;;;;;;;4989398;28;20034;-79
2021/12/01 03:18:34;;;;;;;7.05;2.80;;;;;;;;;;5006120;28;20133;-80
2021/12/01 03:21:01;;;;;;;5.30;2.75;;;;;;;;;;5006930;28;20042;-79
2021/12/01 03:23:28;;;;;;;8.25;2.78;;;;;;;;;;5005650;28;20045;-80
2021/12/01 03:25:54;;;;;;;6.40;2.40;;;;;;;;;;4990871;28;20131;-79
2021/12/01 03:28:20;;;;;;;7.38;2.13;;;;;;;;;;5006267;28;20847;-78
2021/12/01 03:30:47;;;;;;;5.90;2.20;;;;;;;;;;5005806;28;20046;-80
2021/12/01 03:33:14;;;;;;;4.80;2.00;;;;;;;;;;5006453;28;20054;-79
2021/12/01 03:35:41;;;;;;;2.67;1.10;;;;;;;;;;5006136;28;20049;-79
2021/12/01 03:38:08;;;;;;;7.45;2.17;;;;;;;;;;5004857;28;20104;-79
2021/12/01 03:40:34;;;;;;;6.13;1.88;;;;;;;;;;5004912;28;20054;-80
2021/12/01 03:43:00;;;;;;;3.90;1.80;;;;;;;;;;5006102;28;20049;-79
2021/12/01 03:45:32;;;;;;;5.75;1.67;;;;;;;;;;5006712;28;20696;-79
2021/12/01 03:47:58;;;;;;;8.32;2.50;;;;;;;;;;5006963;28;20026;-80
2021/12/01 03:50:25;;;;;;;4.10;1.90;;;;;;;;;;5007225;28;20045;-80
2021/12/01 03:52:51;;;;;;;5.40;2.05;;;;;;;;;;5003939;28;20550;-80
2021/12/01 03:55:17;;;;;;;4.70;1.90;;;;;;;;;;5005204;28;20042;-80
2021/12/01 03:57:44;;;;;;;3.67;1.27;;;;;;;;;;5005648;28;20056;-80
2021/12/01 04:00:11;;;;;;;5.20;1.70;;;;;;;;;;5006556;28;20030;-79
2021/12/01 04:02:38;;;;;;;11.88;2.35;;;;;;;;;;5006976;28;20843;-80
2021/12/01 04:05:04;;;;;;;14.50;2.42;;;;;;;;;;4987760;28;20046;-79
2021/12/01 04:07:30;;;;;;;15.18;2.42;;;;;;;;;;5006400;28;20034;-80
2021/12/01 04:09:57;;;;;;;10.55;2.70;;;;;;;;;;5005756;28;20030;-80
2021/12/01 04:12:23;;;;;;;11.57;2.58;;;;;;;;;;5006253;28;20041;-80
2021/12/01 04:14:49;;;;;;;6.40;1.65;;;;;;;;;;5006798;28;20140;-80
2021/12/01 04:17:15;;;;;;;6.82;1.73;;;;;;;;;;5004947;28;20540;-80
2021/12/01 04:19:41;;;;;;;12.88;3.17;;;;;;;;;;5006309;28;20587;-81
2021/12/01 04:22:07;;;;;;;15.02;3.13;;;;;;;;;;5004532;28;20048;-81
2021/12/01 04:24:33;;;;;;;9.70;2.67;;;;;;;;;;5005813;28;20050;-80
2021/12/01 04:27:00;;;;;;;13.45;2.47;;;;;;;;;;5006449;28;20041;-79
2021/12/01 04:29:26;;;;;;;16.30;3.00;;;;;;;;;;5004839;28;20045;-80
2021/12/01 04:31:52;;;;;;;6.38;1.73;;;;;;;;;;5005950;28;20095;-80
2021/12/01 04:34:20;;;;;;;11.18;2.65;;;;;;;;;;5006545;28;20115;-80
2021/12/01 04:36:47;;;;;;;21.83;3.08;;;;;;;;;;5004502;28;20513;-80
2021/12/01 04:39:15;;;;;;;11.85;2.58;;;;;;;;;;5003243;28;20525;-81
2021/12/01 04:41:51;;;;;;;10.82;1.92;;;;;;;;;;5004777;28;20058;-80
2021/12/01 04:44:19;;;;;;;11.43;2.38;;;;;;;;;;5005103;28;20390;-80
2021/12/01 04:46:46;;;;;;;10.15;2.42;;;;;;;;;;5005003;28;20042;-81
2021/12/01 04:49:14;;;;;;;12.73;2.90;;;;;;;;;;5005481;28;20514;-81
2021/12/01 04:51:41;;;;;;;12.23;2.97;;;;;;;;;;5003610;28;20042;-81
2021/12/01 04:54:07;;;;;;;8.70;2.50;;;;;;;;;;4987472;28;20057;-81
2021/12/01 04:56:33;;;;;;;7.95;2.88;;;;;;;;;;5005414;28;20042;-81
2021/12/01 04:59:00;;;;;;;9.52;2.78;;;;;;;;;;5003016;28;20680;-81
2021/12/01 05:01:26;;;;;;;6.47;2.70;;;;;;;;;;5003092;28;20391;-80
2021/12/01 05:03:52;;;;;;;6.88;2.60;;;;;;;;;;5002870;28;20187;-81
2021/12/01 05:06:18;;;;;;;8.23;3.30;;;;;;;;;;5001948;28;20543;-81
2021/12/01 05:08:45;;;;;;;6.80;2.38;;;;;;;;;;5007462;28;20465;-80
2021/12/01 05:11:11;;;;;;;3.13;2.03;;;;;;;;;;5015924;28;20402;-81
2021/12/01 05:13:37;;;;;;;5.13;2.58;;;;;;;;;;5019035;28;20041;-80
2021/12/01 05:16:04;;;;;;;7.78;2.80;;;;;;;;;;5018193;28;20509;-82
2021/12/01 05:18:30;;;;;;;4.95;3.65;;;;;;;;;;5014862;28;20052;-81
2021/12/01 05:20:56;;;;;;;8.10;3.63;;;;;;;;;;5012790;28;20095;-82
2021/12/01 05:23:22;;;;;;;6.63;2.83;;;;;;;;;;5007748;28;20041;-82
2021/12/01 05:25:48;;;;;;;5.90;4.00;;;;;;;;;;5006139;28;20088;-81
2021/12/01 05:28:14;;;;;;;4.53;3.45;;;;;;;;;;5006875;28;20070;-82
2021/12/01 05:30:40;;;;;;;4.60;3.83;;;;;;;;;;5005082;28;20140;-82
2021/12/01 05:33:08;;;;;;;5.18;3.70;;;;;;;;;;5009316;28;20170;-82
2021/12/01 05:35:36;;;;;;;4.45;3.70;;;;;;;;;;4993296;28;20154;-81
2021/12/01 05:38:08;;;;;;;3.95;2.42;;;;;;;;;;5018154;28;20078;-81
2021/12/01 05:40:34;;;;;;;3.15;2.13;;;;;;;;;;4994053;28;20065;-82
2021/12/01 05:43:00;;;;;;;2.03;1.40;;;;;;;;;;5016462;28;20038;-82
2021/12/01 05:45:26;;;;;;;1.85;1.40;;;;;;;;;;5007663;28;20092;-80
2021/12/01 05:47:53;;;;;;;1.52;1.42;;;;;;;;;;5008011;28;20042;-81
2021/12/01 05:50:19;;;;;;;1.60;1.50;;;;;;;;;;5009340;28;20643;-81
2021/12/01 05:52:46;;;;;;;1.92;1.77;;;;;;;;;;5007276;28;20038;-81
2021/12/01 05:55:12;;;;;;;1.13;0.95;;;;;;;;;;5008584;28;20150;-82
2021/12/01 05:57:38;;;;;;;1.33;1.17;;;;;;;;;;5006891;28;20553;-81
2021/12/01 06:00:08;;;;;;;1.75;1.42;;;;;;;;;;5005513;28;20042;-80
2021/12/01 06:02:34;;;;;;;1.88;1.40;;;;;;;;;;5007458;28;20137;-82
2021/12/01 06:05:00;;;;;;;2.03;1.75;;;;;;;;;;5008542;28;20112;-85
2021/12/01 06:07:26;;;;;;;1.08;0.98;;;;;;;;;;5008436;28;20042;-82
2021/12/01 06:09:52;;;;;;;1.75;1.65;;;;;;;;;;5007492;28;20050;-82
2021/12/01 06:12:18;;;;;;;2.22;1.25;;;;;;;;;;5007783;28;20057;-84
2021/12/01 06:14:45;;;;;;;1.90;1.75;;;;;;;;;;5007728;28;20159;-83
2021/12/01 06:17:13;;;;;;;3.58;2.08;;;;;;;;;;5008318;28;20038;-83
2021/12/01 06:19:40;;;;;;;2.63;1.70;;;;;;;;;;5008642;28;20052;-83
2021/12/01 06:22:07;;;;;;;3.05;2.25;;;;;;;;;;5006482;28;20037;-82
2021/12/01 06:24:34;;;;;;;4.82;2.30;;;;;;;;;;5017394;28;20034;-82
2021/12/01 06:27:00;;;;;;;2.63;2.30;;;;;;;;;;5022316;28;20069;-81
2021/12/01 06:29:26;;;;;;;2.20;2.00;;;;;;;;;;5019388;28;20497;-83
2021/12/01 06:31:52;;;;;;;3.35;2.17;;;;;;;;;;5002815;28;20490;-81
2021/12/01 06:34:18;;;;;;;1.83;1.67;;;;;;;;;;5006983;28;20073;-82
2021/12/01 06:36:44;;;;;;;1.92;1.70;;;;;;;;;;4988854;28;20053;-81
2021/12/01 06:39:10;;;;;;;1.95;1.63;;;;;;;;;;5004965;28;20050;-83
2021/12/01 06:41:36;;;;;;;2.10;1.95;;;;;;;;;;5005703;28;20045;-82
2021/12/01 06:44:03;;;;;;;2.65;2.45;;;;;;;;;;5005899;28;20046;-81
2021/12/01 06:46:29;;;;;;;2.25;2.08;;;;;;;;;;4987817;28;20513;-83
2021/12/01 06:48:56;;;;;;;2.85;2.65;;;;;;;;;;5004763;28;20030;-82
2021/12/01 06:51:22;;;;;;;2.90;2.63;;;;;;;;;;5006052;28;20445;-81
2021/12/01 06:53:48;;;;;;;2.45;2.25;;;;;;;;;;5004759;28;20643;-82
2021/12/01 06:56:16;;;;;;;3.17;2.15;;;;;;;;;;5003297;28;20042;-82
2021/12/01 06:58:43;;;;;;;2.65;2.45;;;;;;;;;;5005854;28;20497;-82
2021/12/01 07:01:09;;;;;;;2.53;2.33;;;;;;;;;;5003212;28;20042;-82
2021/12/01 07:03:35;;;;;;;2.22;2.03;;;;;;;;;;5003594;28;20043;-83
2021/12/01 07:06:03;;;;;;;2.08;1.92;;;;;;;;;;4971385;28;20091;-82
2021/12/01 07:08:29;;;;;;;2.58;1.98;;;;;;;;;;5002040;28;20046;-81
2021/12/01 07:10:55;;;;;;;1.92;1.73;;;;;;;;;;5004715;28;20069;-84
2021/12/01 07:13:21;;;;;;;3.65;3.13;;;;;;;;;;5004653;28;20444;-81
2021/12/01 07:15:48;;;;;;;2.35;2.15;;;;;;;;;;5006515;28;20052;-84
2021/12/01 07:18:14;;;;;;;2.72;2.53;;;;;;;;;;5006912;28;20453;-83
2021/12/01 07:20:44;;;;;;;2.45;2.15;;;;;;;;;;5008196;28;20508;-83
2021/12/01 07:23:11;;;;;;;1.38;1.27;;;;;;;;;;5006517;28;20058;-83
2021/12/01 07:25:37;;;;;;;2.00;1.60;;;;;;;;;;5007811;28;20064;-83
2021/12/01 07:28:03;;;;;;;2.50;2.20;;;;;;;;;;5006699;28;20056;-82
2021/12/01 07:30:29;;;;;;;2.70;2.10;;;;;;;;;;5006521;28;20045;-83
2021/12/01 07:32:55;;;;;;;2.20;2.00;;;;;;;;;;5008045;28;20042;-83
2021/12/01 07:35:21;;;;;;;1.38;1.27;;;;;;;;;;5006129;28;20401;-81
2021/12/01 07:37:49;;;;;;;2.00;1.90;;;;;;;;;;5008756;28;20497;-83
2021/12/01 07:40:15;;;;;;;3.05;2.63;;;;;;;;;;5008658;28;20054;-83
2021/12/01 07:42:41;;;;;;;1.83;1.55;;;;;;;;;;5008802;28;20053;-83
2021/12/01 07:45:07;;;;;;;5.35;2.90;;;;;;;;;;5007668;28;20095;-83
2021/12/01 07:47:34;;;;;;;1.88;1.65;;;;;;;;;;5007384;28;20046;-82
2021/12/01 07:50:00;;;;;;;2.50;2.30;;;;;;;;;;5008980;28;20124;-82
2021/12/01 07:52:26;;;;;;;3.17;2.40;;;;;;;;;;5007809;28;20379;-83
2021/12/01 07:54:52;;;;;;;5.40;2.72;;;;;;;;;;5008632;28;20042;-82
2021/12/01 07:57:18;;;;;;;3.65;2.40;;;;;;;;;;5005308;28;20108;-83
2021/12/01 07:59:45;;;;;;;3.65;3.05;;;;;;;;;;5007921;28;20049;-82
2021/12/01 08:02:11;;;;;;;2.45;2.08;;;;;;;;;;5008387;28;20041;-82
2021/12/01 08:04:37;;;;;;;2.70;2.45;;;;;;;;;;4990628;28;20038;-82
2021/12/01 08:07:03;;;;;;;4.60;2.88;;;;;;;;;;5006909;28;20100;-82
2021/12/01 08:09:29;;;;;;;4.10;2.53;;;;;;;;;;5007071;28;20052;-82
2021/12/01 08:11:56;;;;;;;4.68;3.38;;;;;;;;;;5002451;28;20038;-82
2021/12/01 08:14:22;;;;;;;4.78;3.00;;;;;;;;;;4994921;28;20054;-82
2021/12/01 08:16:48;;;;;;;3.95;2.75;;;;;;;;;;5007045;28;20045;-83
2021/12/01 08:19:15;;;;;;;5.95;4.07;;;;;;;;;;5006558;28;20069;-82
2021/12/01 08:21:41;;;;;;;5.30;2.70;;;;;;;;;;5005145;28;20038;-81
2021/12/01 08:24:07;;;;;;;4.53;2.83;;;;;;;;;;5004141;28;20042;-83
2021/12/01 08:26:34;;;;;;;7.53;4.07;;;;;;;;;;5005758;28;20085;-82
2021/12/01 08:29:00;;;;;;;7.05;3.58;;;;;;;;;;5004448;28;20100;-82
2021/12/01 08:31:26;;;;;;;4.28;3.00;;;;;;;;;;5004406;28;20038;-82
2021/12/01 08:33:53;;;;;;;4.40;3.42;;;;;;;;;;5004620;28;20088;-82
2021/12/01 08:36:19;;;;;;;4.97;3.25;;;;;;;;;;5004925;28;20053;-81
2021/12/01 08:38:45;;;;;;;6.47;4.05;;;;;;;;;;5004556;28;20061;-82
2021/12/01 08:41:12;;;;;;;4.75;3.80;;;;;;;;;;5005809;28;20045;-82
2021/12/01 08:43:38;;;;;;;4.95;3.35;;;;;;;;;;5004573;28;20042;-82
2021/12/01 08:46:05;;;;;;;6.28;3.65;;;;;;;;;;5005351;28;20485;-83
2021/12/01 08:48:31;;;;;;;3.50;3.15;;;;;;;;;;5005049;28;20042;-82
2021/12/01 08:51:01;;;;;;;6.68;3.30;;;;;;;;;;5004202;28;20045;-82
2021/12/01 08:53:27;;;;;;;6.38;3.60;;;;;;;;;;5000426;28;20073;-82
2021/12/01 08:55:54;;;;;;;9.90;3.42;;;;;;;;;;4999994;28;20191;-82
2021/12/01 08:58:20;;;;;;;6.35;3.05;;;;;;;;;;5004093;28;20038;-82
2021/12/01 09:00:47;;;;;;;6.60;2.10;;;;;;;;;;5003797;28;20572;-83
2021/12/01 09:03:14;;;;;;;5.57;1.67;;;;;;;;;;4988224;28;20133;-83
2021/12/01 09:05:41;;;;;;;8.80;1.98;;;;;;;;;;5003513;28;20083;-82
2021/12/01 09:08:07;;;;;;;3.40;1.42;;;;;;;;;;5005891;28;20083;-82
2021/12/01 09:10:34;;;;;;;4.97;1.65;;;;;;;;;;5020258;28;20429;-82
2021/12/01 09:13:01;;;;;;;8.02;1.98;;;;;;;;;;5004267;28;20057;-81
2021/12/01 09:15:27;;;;;;;8.13;1.58;;;;;;;;;;5000681;28;20065;-81
2021/12/01 09:17:53;;;;;;;6.35;1.30;;;;;;;;;;5004312;28;20092;-80
2021/12/01 09:20:19;;;;;;;6.13;1.35;;;;;;;;;;5004554;28;20074;-80
2021/12/01 09:22:46;;;;;;;18.95;2.10;;;;;;;;;;5011793;28;20378;-80
2021/12/01 09:25:12;;;;;;;5.72;1.67;;;;;;;;;;5012673;28;20073;-80
2021/12/01 09:27:38;;;;;;;14.55;1.83;;;;;;;;;;5004722;28;20414;-80
2021/12/01 09:30:05;;;;;;;9.43;1.73;;;;;;;;;;5006030;28;20428;-80
2021/12/01 09:32:35;;;;;;;11.55;2.05;;;;;;;;;;4994774;28;20127;-80
2021/12/01 09:35:01;;;;;;;5.03;1.10;;;;;;;;;;5006125;28;20054;-80
2021/12/01 09:37:28;;;;;;;5.68;1.08;;;;;;;;;;5004222;28;20184;-81
2021/12/01 09:39:54;;;;;;;7.65;1.63;;;;;;;;;;4988090;28;20410;-81
2021/12/01 09:42:21;;;;;;;7.97;1.27;;;;;;;;;;5005639;28;20140;-82
2021/12/01 09:44:48;;;;;;;8.48;1.35;;;;;;;;;;4988811;28;20061;-81
2021/12/01 09:47:19;;;;;;;12.48;1.98;;;;;;;;;;5010908;28;20052;-80
2021/12/01 09:49:45;;;;;;;11.27;1.63;;;;;;;;;;5008993;28;20042;-82
2021/12/01 09:52:11;;;;;;;8.68;2.40;;;;;;;;;;5004345;28;20102;-82
2021/12/01 09:54:39;;;;;;;14.88;1.55;;;;;;;;;;5006406;28;20116;-81
2021/12/01 09:57:05;;;;;;;8.57;2.22;;;;;;;;;;5005620;28;20064;-82
2021/12/01 09:59:31;;;;;;;6.25;1.35;;;;;;;;;;5004396;28;20041;-81
2021/12/01 10:01:57;;;;;;;10.38;2.45;;;;;;;;;;5004217;28;20038;-81
2021/12/01 10:04:24;;;;;;;6.65;1.77;;;;;;;;;;5022169;28;20049;-82
2021/12/01 10:06:50;;;;;;;7.25;1.15;;;;;;;;;;5005812;28;20050;-82
2021/12/01 10:09:19;;;;;;;5.93;1.17;;;;;;;;;;5005712;28;20572;-81
2021/12/01 10:11:45;;;;;;;7.82;1.38;;;;;;;;;;5004360;28;20045;-81
2021/12/01 10:14:18;;;;;;;12.68;1.40;;;;;;;;;;5006309;28;20066;-81
2021/12/01 10:16:45;;;;;;;7.40;1.80;;;;;;;;;;5004683;28;20062;-80
2021/12/01 10:19:13;;;;;;;4.72;1.25;;;;;;;;;;5005659;28;20056;-80
2021/12/01 10:21:47;;;;;;;11.90;1.95;;;;;;;;;;5027130;28;20048;-81
2021/12/01 10:24:17;;;;;;;14.32;2.28;;;;;;;;;;5029302;28;20128;-80
2021/12/01 10:26:46;;;;;;;6.20;1.25;;;;;;;;;;5020666;28;20077;-80
2021/12/01 10:29:19;;;;;;;10.93;2.10;;;;;;;;;;5007825;28;20481;-80
2021/12/01 10:31:47;;;;;;;13.03;2.43;;;;;;;;;;5009509;28;20056;-80
2021/12/01 10:34:23;;;;;;;8.55;1.75;;;;;;;;;;5009525;28;20040;-80
2021/12/01 10:36:50;;;;;;;9.68;1.40;;;;;;;;;;5007559;28;20132;-80
2021/12/01 10:39:16;;;;;;;17.13;2.38;;;;;;;;;;5021367;28;20061;-81
2021/12/01 10:41:43;;;;;;;13.25;1.42;;;;;;;;;;5017881;28;20142;-80
2021/12/01 10:44:09;;;;;;;7.60;1.83;;;;;;;;;;5008977;28;20053;-81
2021/12/01 10:46:46;;;;;;;14.18;2.45;;;;;;;;;;5009136;28;20044;-80
2021/12/01 10:49:12;;;;;;;10.57;1.42;;;;;;;;;;5009771;28;20891;-80
2021/12/01 10:51:39;;;;;;;11.35;2.25;;;;;;;;;;4983368;28;20044;-80
2021/12/01 10:54:13;;;;;;;8.90;1.42;;;;;;;;;;5007804;28;20069;-78
2021/12/01 10:56:39;;;;;;;8.00;1.10;;;;;;;;;;5008424;28;20038;-79
2021/12/01 10:59:13;;;;;;;9.10;2.00;;;;;;;;;;5006508;28;20304;-79
2021/12/01 11:01:39;;;;;;;;;;;;;;;;;;5007910;28;20050;-79
2021/12/01 11:04:06;;;;;;;10.45;1.77;;;;;;;;;;5007682;28;19925;-79
2021/12/01 11:06:37;;;;;;;14.82;2.72;;;;;;;;;;5027347;28;20099;-78
2021/12/01 11:09:03;;;;;;;9.45;1.60;;;;;;;;;;5026396;28;20034;-78
2021/12/01 11:11:43;;;;;;;8.65;1.85;;;;;;;;;;5026296;28;20084;-78
2021/12/01 11:14:14;;;;;;;12.38;2.50;;;;;;;;;;5011853;28;20053;-79
2021/12/01 11:16:41;;;;;;;12.57;2.03;;;;;;;;;;5011395;28;20057;-80
2021/12/01 11:19:08;;;;;;;10.57;1.70;;;;;;;;;;5008811;28;20441;-79
2021/12/01 11:21:35;;;;;;;16.60;3.35;;;;;;;;;;5008368;28;20061;-79
2021/12/01 11:24:04;;;;;;;10.45;2.45;;;;;;;;;;5007276;28;20493;-79
2021/12/01 11:26:32;;;;;;;11.18;2.45;;;;;;;;;;5003467;28;20065;-80
2021/12/01 11:28:59;;;;;;;12.07;2.85;;;;;;;;;;5007131;28;20057;-80
2021/12/01 11:31:33;;;;;;;8.27;2.13;;;;;;;;;;5008486;28;20077;-78
2021/12/01 11:34:04;;;;;;;24.73;3.40;;;;;;;;;;5007368;28;20143;-79
2021/12/01 11:36:34;;;;;;;18.60;2.35;;;;;;;;;;5006682;28;20048;-79
2021/12/01 11:39:02;;;;;;;22.80;3.03;;;;;;;;;;5006619;28;20046;-79
2021/12/01 11:41:28;;;;;;;18.02;3.17;;;;;;;;;;5006885;28;20085;-79
2021/12/01 11:43:55;;;;;;;28.05;5.13;;;;;;;;;;5007551;28;20042;-79
2021/12/01 11:46:21;;;;;;;20.23;3.58;;;;;;;;;;5007047;28;20099;-79
2021/12/01 11:48:49;;;;;;;27.05;4.65;;;;;;;;;;5007304;28;20038;-79
2021/12/01 11:51:15;;;;;;;21.42;4.07;;;;;;;;;;5006267;28;20057;-79
2021/12/01 11:53:42;;;;;;;27.73;4.63;;;;;;;;;;4991916;28;20045;-80
2021/12/01 11:56:13;;;;;;;23.38;3.50;;;;;;;;;;5006890;28;20049;-80
2021/12/01 11:58:41;;;;;;;19.17;3.15;;;;;;;;;;5007773;28;20045;-79
2021/12/01 12:01:23;;;;;;;28.27;4.00;;;;;;;;;;4990609;28;20053;-79
2021/12/01 12:04:10;;;;;;;14.52;2.75;;;;;;;;;;5006434;28;20183;-78
2021/12/01 12:06:37;;;;;;;22.33;4.13;;;;;;;;;;4992997;28;20050;-78
2021/12/01 12:09:13;;;;;;;24.88;3.88;;;;;;;;;;5008089;28;20154;-79
2021/12/01 12:11:41;;;;;;;21.38;3.70;;;;;;;;;;5005755;28;20131;-79
2021/12/01 12:14:07;;;;;;;28.45;3.72;;;;;;;;;;5006319;28;20042;-78
2021/12/01 12:16:33;;;;;;;26.33;3.72;;;;;;;;;;5006700;28;20132;-78
2021/12/01 12:19:00;;;;;;;16.50;3.60;;;;;;;;;;4990130;28;20129;-77
2021/12/01 12:24:07;;;;;;;19.60;3.70;;;;;;;;;;5006354;28;20072;-79
2021/12/01 12:26:44;;;;;;;24.15;3.15;;;;;;;;;;5005248;28;20515;-79
2021/12/01 12:29:15;;;;;;;14.20;2.50;;;;;;;;;;5010611;28;20054;-78
2021/12/01 12:31:43;;;;;;;19.83;3.03;;;;;;;;;;5006562;28;20046;-79
2021/12/01 12:34:16;;;;;;;15.65;2.05;;;;;;;;;;5005509;28;20069;-78
2021/12/01 12:36:47;;;;;;;15.82;2.58;;;;;;;;;;5006317;28;20404;-78
2021/12/01 12:39:15;;;;;;;15.25;2.03;;;;;;;;;;5005738;28;20058;-78
2021/12/01 12:42:04;;;;;;;14.48;2.47;;;;;;;;;;5007649;28;20112;-78
2021/12/01 12:44:33;;;;;;;13.52;2.45;;;;;;;;;;5000648;28;20065;-78
2021/12/01 12:47:13;;;;;;;17.27;2.22;;;;;;;;;;4986971;28;20081;-79
2021/12/01 12:49:46;;;;;;;12.95;2.53;;;;;;;;;;5005222;28;20056;-78
2021/12/01 12:52:24;;;;;;;8.83;2.17;;;;;;;;;;5006001;28;20053;-78
2021/12/01 12:54:54;;;;;;;8.60;1.63;;;;;;;;;;5023437;28;20331;-78
2021/12/01 12:57:21;;;;;;;14.45;1.98;;;;;;;;;;5008995;28;20098;-79
2021/12/01 12:59:47;;;;;;;14.75;2.17;;;;;;;;;;5025861;28;20056;-78
2021/12/01 13:02:16;;;;;;;13.30;2.15;;;;;;;;;;4997187;28;20038;-80
2021/12/01 13:04:49;;;;;;;12.82;2.55;;;;;;;;;;5018572;28;20049;-80
2021/12/01 13:07:34;;;;;;;19.48;3.10;;;;;;;;;;5027617;28;20050;-78
2021/12/01 13:10:20;;;;;;;17.90;3.22;;;;;;;;;;5020981;28;20045;-78
2021/12/01 13:13:02;;;;;;;20.45;2.88;;;;;;;;;;4983583;28;20039;-78
2021/12/01 13:15:36;;;;;;;19.63;2.75;;;;;;;;;;5008728;28;20048;-80
2021/12/01 13:18:05;;;;;;;14.27;2.80;;;;;;;;;;5007704;28;20506;-78
2021/12/01 13:20:34;;;;;;;10.50;2.10;;;;;;;;;;5008938;28;20048;-79
2021/12/01 13:23:00;;;;;;;22.20;3.15;;;;;;;;;;5006100;28;20042;-79
2021/12/01 13:25:26;;;;;;;14.05;2.13;;;;;;;;;;5006388;28;20042;-79
2021/12/01 13:27:52;;;;;;;20.45;3.17;;;;;;;;;;5005659;28;20176;-80
2021/12/01 13:30:21;;;;;;;27.83;3.25;;;;;;;;;;5004193;28;20082;-79
2021/12/01 13:33:04;;;;;;;13.43;3.38;;;;;;;;;;4998066;28;20525;-79
2021/12/01 13:35:31;;;;;;;24.90;2.67;;;;;;;;;;4990644;28;20045;-79
2021/12/01 13:37:57;;;;;;;24.08;3.00;;;;;;;;;;5003171;28;20053;-78
2021/12/01 13:40:26;;;;;;;14.20;2.95;;;;;;;;;;4999043;28;20058;-79
2021/12/01 13:42:52;;;;;;;29.77;4.28;;;;;;;;;;5005088;28;20069;-79
2021/12/01 13:45:18;;;;;;;11.10;2.65;;;;;;;;;;5005411;28;20517;-79
2021/12/01 13:47:45;;;;;;;15.15;3.10;;;;;;;;;;5005038;28;20037;-79
2021/12/01 13:50:11;;;;;;;20.60;3.47;;;;;;;;;;5005014;28;20041;-80
2021/12/01 13:52:43;;;;;;;15.68;3.10;;;;;;;;;;5004230;28;20042;-78
2021/12/01 13:55:19;;;;;;;17.17;2.92;;;;;;;;;;5003044;28;20406;-79
2021/12/01 13:57:52;;;;;;;14.60;2.90;;;;;;;;;;5007801;28;20053;-79
2021/12/01 14:00:51;;;;;;;15.55;2.45;;;;;;;;;;5023817;28;20061;-79
2021/12/01 14:03:18;;;;;;;11.15;2.47;;;;;;;;;;5020996;28;20058;-79
2021/12/01 14:05:46;;;;;;;9.55;2.08;;;;;;;;;;5008815;28;20042;-78
2021/12/01 14:08:31;;;;;;;11.25;2.28;;;;;;;;;;5005383;28;20053;-78
2021/12/01 14:10:57;;;;;;;;;;;;;;;;;;5006933;28;20042;-80
2021/12/01 14:13:24;;;;;;;19.38;3.00;;;;;;;;;;5007062;28;19928;-80
2021/12/01 14:15:51;;;;;;;17.08;2.40;;;;;;;;;;5004532;28;20088;-79
2021/12/01 14:18:17;;;;;;;17.95;3.72;;;;;;;;;;4999885;28;20056;-80
2021/12/01 14:20:43;;;;;;;19.98;3.25;;;;;;;;;;5007563;28;20517;-79
2021/12/01 14:23:09;;;;;;;16.60;3.78;;;;;;;;;;5003999;28;20061;-78
2021/12/01 14:25:36;;;;;;;23.10;3.05;;;;;;;;;;5001558;28;20144;-79
2021/12/01 14:28:04;;;;;;;14.52;2.92;;;;;;;;;;5006456;28;20048;-79
2021/12/01 14:30:31;;;;;;;17.95;2.83;;;;;;;;;;5003530;28;20038;-80
2021/12/01 14:32:57;;;;;;;18.08;2.53;;;;;;;;;;5006039;28;20053;-80
2021/12/01 14:35:23;;;;;;;12.13;2.78;;;;;;;;;;5007517;28;20084;-79
2021/12/01 14:37:49;;;;;;;19.50;3.35;;;;;;;;;;5007660;28;20096;-79
2021/12/01 14:40:17;;;;;;;20.02;3.13;;;;;;;;;;5006931;28;20132;-80
2021/12/01 14:42:43;;;;;;;17.75;2.15;;;;;;;;;;5010947;28;20038;-80
2021/12/01 14:45:09;;;;;;;13.35;2.55;;;;;;;;;;5005585;28;20141;-78
2021/12/01 14:47:35;;;;;;;13.35;2.45;;;;;;;;;;5007521;28;20049;-79
2021/12/01 14:50:01;;;;;;;25.98;3.05;;;;;;;;;;5005370;28;20033;-79